Time;durP1;ratioP1;P1;durP2;ratioP2;P2;SDS_P1;SDS_P2;PMS_P1;PMS_P2;Temp;Humidity;BMP_temperature;BMP_pressure;BME280_temperature;BME280_humidity;BME280_pressure;Samples;Min_cycle;Max_cycle;Signal;HPM_P1;HPM_P2
2022/05/18 03:01:13;;;;;;;11.73;10.93;;;13.00;99.90;;;;;;5591046;23;20245;-78
2022/05/18 03:03:40;;;;;;;10.63;9.87;;;13.00;99.90;;;;;;4957212;29;20194;-78
2022/05/18 03:06:09;;;;;;;12.63;11.73;;;12.90;99.90;;;;;;4955744;28;20181;-79
2022/05/18 03:08:37;;;;;;;11.70;10.90;;;12.90;99.90;;;;;;4968644;28;20189;-79
2022/05/18 03:11:04;;;;;;;12.30;11.10;;;12.80;99.90;;;;;;4957821;28;20266;-79
2022/05/18 03:13:30;;;;;;;10.70;9.87;;;12.80;99.90;;;;;;4977159;23;20196;-78
2022/05/18 03:15:57;;;;;;;10.83;9.83;;;12.80;99.90;;;;;;4954298;28;20186;-74
2022/05/18 03:18:23;;;;;;;9.57;8.80;;;12.80;99.90;;;;;;4953119;29;20177;-74
2022/05/18 03:23:34;;;;;;;10.30;9.50;;;12.80;99.90;;;;;;4947365;28;20657;-74
2022/05/18 03:26:08;;;;;;;14.03;13.00;;;12.60;99.90;;;;;;4936327;28;20257;-75
2022/05/18 03:28:36;;;;;;;11.57;10.73;;;12.60;99.90;;;;;;4933567;29;20186;-75
2022/05/18 03:31:02;;;;;;;13.13;12.23;;;12.50;99.90;;;;;;4934051;28;20182;-74
2022/05/18 03:33:29;;;;;;;18.47;17.17;;;12.50;99.90;;;;;;4931070;29;20221;-74
2022/05/18 03:35:54;;;;;;;18.63;17.20;;;12.60;99.90;;;;;;4914007;29;20222;-75
2022/05/18 03:38:21;;;;;;;17.60;16.60;;;12.70;99.90;;;;;;4911358;29;20247;-75
2022/05/18 03:40:47;;;;;;;11.37;10.47;;;12.80;99.90;;;;;;4914332;29;20215;-75
2022/05/18 03:43:14;;;;;;;13.07;12.23;;;12.90;99.90;;;;;;4913252;29;20198;-75
2022/05/18 03:45:40;;;;;;;13.37;12.40;;;12.90;99.90;;;;;;4914410;29;20194;-74
2022/05/18 03:48:07;;;;;;;16.37;15.07;;;12.90;99.90;;;;;;4913001;29;20437;-74
2022/05/18 03:50:36;;;;;;;15.67;14.67;;;12.90;99.90;;;;;;4915436;29;20179;-74
2022/05/18 03:53:03;;;;;;;16.70;15.07;;;12.90;99.90;;;;;;4912773;29;20564;-74
2022/05/18 03:55:30;;;;;;;13.33;12.27;;;13.00;99.90;;;;;;4920700;29;20214;-74
2022/05/18 03:57:56;;;;;;;13.70;12.30;;;12.90;99.90;;;;;;4915395;29;20652;-75
2022/05/18 04:00:22;;;;;;;18.40;16.97;;;12.90;99.90;;;;;;4928793;29;20214;-75
2022/05/18 04:02:48;;;;;;;19.47;17.97;;;12.90;99.90;;;;;;4934690;29;20325;-74
2022/05/18 04:05:20;;;;;;;14.23;13.23;;;12.90;99.90;;;;;;4933393;29;20749;-74
2022/05/18 04:07:46;;;;;;;18.07;16.40;;;12.90;99.90;;;;;;4934084;29;20676;-74
2022/05/18 04:10:12;;;;;;;17.50;16.17;;;12.80;99.90;;;;;;4934804;29;20760;-74
2022/05/18 04:12:39;;;;;;;17.17;15.87;;;12.70;99.90;;;;;;4934584;29;20190;-74
2022/05/18 04:15:05;;;;;;;18.57;17.17;;;12.60;99.90;;;;;;4934091;29;20222;-75
2022/05/18 04:17:31;;;;;;;19.70;18.53;;;12.60;99.90;;;;;;4933540;29;20441;-74
2022/05/18 04:19:58;;;;;;;23.70;22.10;;;12.70;99.90;;;;;;4934542;29;20213;-75
2022/05/18 04:22:23;;;;;;;14.60;13.63;;;12.80;99.90;;;;;;4934390;29;20207;-74
2022/05/18 04:24:50;;;;;;;17.00;15.93;;;12.90;99.90;;;;;;4934521;29;20679;-74
2022/05/18 04:27:16;;;;;;;16.40;15.27;;;12.90;99.90;;;;;;4934099;29;20205;-76
2022/05/18 04:29:42;;;;;;;15.90;14.83;;;12.90;99.90;;;;;;4934306;29;20185;-75
2022/05/18 04:32:08;;;;;;;14.93;13.83;;;13.00;99.90;;;;;;4934744;29;20210;-75
2022/05/18 04:34:34;;;;;;;14.17;13.20;;;13.10;99.90;;;;;;4932882;29;20262;-75
2022/05/18 04:37:02;;;;;;;15.87;14.67;;;13.20;99.90;;;;;;4932708;29;20269;-75
2022/05/18 04:39:27;;;;;;;25.47;23.87;;;13.40;99.90;;;;;;4934171;28;20282;-75
2022/05/18 04:41:53;;;;;;;17.87;16.70;;;13.50;99.90;;;;;;4933416;29;20593;-76
2022/05/18 04:44:19;;;;;;;18.90;17.53;;;13.50;99.90;;;;;;4932748;29;20202;-75
2022/05/18 04:46:45;;;;;;;11.20;10.43;;;13.60;99.90;;;;;;4933738;29;20190;-76
2022/05/18 04:49:12;;;;;;;13.00;12.10;;;13.70;99.90;;;;;;4932595;29;20555;-76
2022/05/18 04:51:39;;;;;;;34.30;32.40;;;13.80;99.90;;;;;;4934075;29;20242;-75
2022/05/18 04:54:04;;;;;;;35.67;33.67;;;14.00;99.90;;;;;;4933393;29;20690;-76
2022/05/18 04:56:30;;;;;;;52.33;49.13;;;14.20;99.90;;;;;;4932810;29;20232;-75
2022/05/18 04:58:56;;;;;;;62.97;59.33;;;14.40;99.90;;;;;;4932209;29;20832;-75
2022/05/18 05:01:25;;;;;;;78.87;74.87;;;14.60;99.90;;;;;;4933922;29;20218;-76
2022/05/18 05:03:51;;;;;;;33.23;31.27;;;14.80;99.90;;;;;;4934872;29;20298;-75
2022/05/18 05:06:16;;;;;;;20.80;19.43;;;15.20;99.90;;;;;;4933776;29;20206;-75
2022/05/18 05:08:42;;;;;;;12.73;11.47;;;15.60;99.90;;;;;;4932439;29;20178;-75
2022/05/18 05:11:08;;;;;;;13.50;12.20;;;16.20;99.90;;;;;;4933734;29;20657;-74
2022/05/18 05:13:35;;;;;;;21.50;20.00;;;16.80;99.90;;;;;;4934540;29;20237;-76
2022/05/18 05:16:07;;;;;;;22.83;21.00;;;17.30;99.90;;;;;;4934241;29;20274;-75
2022/05/18 05:18:33;;;;;;;9.83;9.13;;;17.90;99.90;;;;;;4932431;29;20185;-76
2022/05/18 05:20:59;;;;;;;9.03;8.23;;;18.50;99.90;;;;;;4932786;29;20595;-75
2022/05/18 05:23:26;;;;;;;33.63;30.73;;;19.00;99.90;;;;;;4932983;29;20178;-75
2022/05/18 05:25:54;;;;;;;32.00;30.17;;;19.60;99.90;;;;;;4934006;29;20185;-76
2022/05/18 05:28:20;;;;;;;21.58;20.27;;;20.00;99.90;;;;;;4934004;29;20218;-76
2022/05/18 05:30:47;;;;;;;9.75;9.05;;;20.30;99.90;;;;;;4933787;29;20178;-77
2022/05/18 05:33:13;;;;;;;38.88;36.72;;;20.50;99.90;;;;;;4932649;29;20179;-76
2022/05/18 05:35:41;;;;;;;34.67;32.47;;;20.80;99.90;;;;;;4933453;29;20525;-77
2022/05/18 05:38:08;;;;;;;20.75;19.48;;;21.00;99.90;;;;;;4933046;29;20187;-76
2022/05/18 05:40:34;;;;;;;34.40;32.42;;;21.40;99.90;;;;;;4936655;29;20202;-77
2022/05/18 05:43:06;;;;;;;43.72;41.05;;;21.80;99.90;;;;;;4937190;29;20179;-76
2022/05/18 05:45:31;;;;;;;45.92;43.08;;;21.80;99.90;;;;;;4936890;29;20270;-77
2022/05/18 05:47:58;;;;;;;27.20;25.40;;;22.00;99.90;;;;;;4936910;29;20178;-77
2022/05/18 05:50:25;;;;;;;24.48;22.42;;;22.10;99.90;;;;;;4934936;29;20553;-77
2022/05/18 05:52:52;;;;;;;15.23;14.00;;;22.00;99.90;;;;;;4916781;29;20179;-77
2022/05/18 05:55:18;;;;;;;12.45;11.35;;;22.50;99.90;;;;;;4917255;29;20234;-77
2022/05/18 05:57:43;;;;;;;10.63;9.55;;;22.70;99.90;;;;;;4917010;29;20183;-77
2022/05/18 06:00:10;;;;;;;9.95;9.10;;;23.00;99.90;;;;;;4917136;29;20699;-77
2022/05/18 06:02:36;;;;;;;14.55;13.52;;;23.10;99.90;;;;;;4916393;29;20183;-77
2022/05/18 06:05:03;;;;;;;16.98;15.82;;;23.10;99.90;;;;;;4918679;29;20214;-77
2022/05/18 06:07:30;;;;;;;18.55;17.08;;;23.20;99.90;;;;;;4917411;29;20183;-77
2022/05/18 06:09:57;;;;;;;15.07;11.40;;;23.50;99.90;;;;;;4918450;29;20680;-77
2022/05/18 06:12:26;;;;;;;6.88;6.28;;;23.60;99.90;;;;;;4921288;29;20323;-76
2022/05/18 06:14:52;;;;;;;7.00;6.38;;;24.10;99.90;;;;;;4916758;29;20219;-76
2022/05/18 06:17:18;;;;;;;8.60;8.00;;;24.40;99.90;;;;;;4917651;29;20186;-77
2022/05/18 06:19:44;;;;;;;9.15;8.45;;;24.70;99.90;;;;;;4918628;29;20735;-76
2022/05/18 06:22:09;;;;;;;12.60;11.70;;;24.70;99.90;;;;;;4916451;29;20239;-77
2022/05/18 06:24:36;;;;;;;14.35;13.45;;;24.80;99.90;;;;;;4917763;29;20210;-76
2022/05/18 06:27:02;;;;;;;16.05;14.95;;;24.70;99.90;;;;;;4917303;29;20179;-76
2022/05/18 06:29:28;;;;;;;9.70;8.20;;;24.90;99.90;;;;;;4917577;29;20187;-76
2022/05/18 06:31:54;;;;;;;7.03;6.22;;;25.40;99.90;;;;;;4916572;29;20205;-76
2022/05/18 06:34:21;;;;;;;7.45;6.03;;;25.40;99.90;;;;;;4922612;29;20216;-75
2022/05/18 06:36:49;;;;;;;7.15;6.43;;;25.40;99.90;;;;;;4917008;29;20183;-76
2022/05/18 06:39:18;;;;;;;7.10;6.18;;;25.50;99.90;;;;;;4934671;29;20220;-77
2022/05/18 06:41:45;;;;;;;7.68;7.07;;;25.70;99.90;;;;;;4934958;29;20182;-77
2022/05/18 06:44:12;;;;;;;6.60;6.10;;;25.90;99.90;;;;;;4936094;29;20206;-77
2022/05/18 06:46:39;;;;;;;7.03;6.43;;;26.00;99.80;;;;;;4936374;29;20190;-77
2022/05/18 06:49:06;;;;;;;7.60;7.00;;;26.10;99.70;;;;;;4934350;29;20607;-77
2022/05/18 06:51:36;;;;;;;7.43;6.70;;;26.00;99.70;;;;;;4934773;29;20669;-77
2022/05/18 06:54:03;;;;;;;10.38;9.77;;;26.30;99.70;;;;;;4936461;29;20678;-77
2022/05/18 06:56:31;;;;;;;10.20;9.30;;;26.70;97.20;;;;;;4936277;29;20190;-77
2022/05/18 06:58:58;;;;;;;9.07;8.40;;;26.80;96.40;;;;;;4936171;29;20655;-77
2022/05/18 07:01:26;;;;;;;10.30;7.20;;;27.00;97.70;;;;;;4935381;29;20326;-77
2022/05/18 07:03:52;;;;;;;10.60;9.52;;;27.20;95.20;;;;;;4936576;28;20202;-77
2022/05/18 07:06:22;;;;;;;6.00;5.60;;;27.20;93.60;;;;;;4936922;29;20681;-77
2022/05/18 07:08:51;;;;;;;6.88;6.47;;;27.50;93.60;;;;;;4937118;29;20201;-77
2022/05/18 07:11:18;;;;;;;6.13;5.72;;;27.80;92.00;;;;;;4936178;29;20265;-77
2022/05/18 07:13:46;;;;;;;6.65;6.03;;;28.00;91.90;;;;;;4935613;29;20261;-77
2022/05/18 07:16:11;;;;;;;5.28;4.97;;;27.80;90.30;;;;;;4934503;29;20626;-74
2022/05/18 07:18:37;;;;;;;9.98;9.15;;;28.10;90.60;;;;;;4934926;28;20206;-71
2022/05/18 07:21:05;;;;;;;9.90;9.23;;;28.20;89.20;;;;;;4935543;28;20624;-70
2022/05/18 07:23:32;;;;;;;7.43;6.78;;;28.20;88.50;;;;;;4934181;29;20631;-70
2022/05/18 07:25:59;;;;;;;8.95;8.30;;;27.50;88.00;;;;;;4935123;28;20300;-70
2022/05/18 07:28:25;;;;;;;8.60;6.53;;;27.60;90.10;;;;;;4934785;29;20189;-70
2022/05/18 07:30:53;;;;;;;13.02;12.20;;;27.90;90.70;;;;;;4933247;29;20413;-71
2022/05/18 07:33:21;;;;;;;10.52;9.60;;;28.00;87.30;;;;;;4933609;29;20567;-71
2022/05/18 07:35:51;;;;;;;6.38;5.88;;;27.60;87.30;;;;;;4934050;29;20202;-70
2022/05/18 07:38:28;;;;;;;8.88;8.02;;;27.60;89.50;;;;;;4934729;29;20194;-71
2022/05/18 07:40:53;;;;;;;11.65;10.60;;;28.10;85.70;;;;;;4934826;29;20214;-69
2022/05/18 07:43:19;;;;;;;11.13;10.43;;;28.00;85.00;;;;;;4934910;29;20555;-71
2022/05/18 07:45:46;;;;;;;9.13;8.38;;;28.10;85.00;;;;;;4933867;29;20237;-70
2022/05/18 07:48:12;;;;;;;10.85;9.38;;;28.40;83.40;;;;;;4934542;29;20723;-70
2022/05/18 07:50:39;;;;;;;11.85;11.15;;;28.00;82.40;;;;;;4935230;29;20278;-71
2022/05/18 07:53:05;;;;;;;13.13;12.40;;;28.30;82.00;;;;;;4935525;29;20191;-70
2022/05/18 07:55:31;;;;;;;9.02;8.40;;;27.80;81.60;;;;;;4934498;29;20261;-71
2022/05/18 07:57:57;;;;;;;13.63;12.93;;;28.00;82.70;;;;;;4934380;29;20314;-70
2022/05/18 08:00:24;;;;;;;14.25;13.45;;;28.10;80.00;;;;;;4934794;29;20210;-71
2022/05/18 08:02:50;;;;;;;10.27;9.60;;;28.10;79.60;;;;;;4933802;29;20273;-71
2022/05/18 08:05:17;;;;;;;13.45;12.50;;;28.40;79.10;;;;;;4934010;29;20221;-71
2022/05/18 08:07:45;;;;;;;15.15;14.25;;;28.50;76.50;;;;;;4934810;29;20190;-71
2022/05/18 08:15:46;;;;;;;16.40;15.50;;;27.70;79.20;;;;;;4934206;29;20194;-72
2022/05/18 08:18:12;;;;;;;18.15;16.73;;;28.10;77.10;;;;;;4934309;29;20193;-71
2022/05/18 08:20:45;;;;;;;14.15;13.35;;;28.00;75.90;;;;;;4934379;29;20239;-70
2022/05/18 08:23:11;;;;;;;18.88;17.83;;;28.00;76.70;;;;;;4934081;29;20194;-70
2022/05/18 08:25:37;;;;;;;14.63;13.77;;;28.10;75.90;;;;;;4933150;29;20618;-71
2022/05/18 08:28:04;;;;;;;12.65;11.95;;;28.60;74.90;;;;;;4934098;29;20193;-70
2022/05/18 08:30:31;;;;;;;17.13;16.25;;;28.20;73.60;;;;;;4932740;29;20183;-70
2022/05/18 08:33:00;;;;;;;16.05;15.02;;;28.20;75.40;;;;;;4934260;29;20189;-70
2022/05/18 08:35:27;;;;;;;15.02;14.15;;;28.40;74.20;;;;;;4933944;28;20694;-70
2022/05/18 08:37:53;;;;;;;14.43;13.43;;;28.40;72.90;;;;;;4933391;29;20195;-70
2022/05/18 08:40:38;;;;;;;15.32;14.50;;;28.50;72.70;;;;;;4934024;29;20563;-70
2022/05/18 08:43:12;;;;;;;12.75;12.05;;;28.80;73.10;;;;;;4934078;29;20183;-70
2022/05/18 08:45:43;;;;;;;11.13;10.38;;;28.90;71.30;;;;;;4933804;29;20671;-70
2022/05/18 08:48:36;;;;;;;11.27;10.57;;;28.50;71.40;;;;;;4933813;29;20269;-70
2022/05/18 08:51:05;;;;;;;11.73;10.80;;;28.50;71.00;;;;;;4932557;29;20194;-70
2022/05/18 08:54:08;;;;;;;9.77;9.07;;;28.60;69.80;;;;;;4932497;29;20217;-70
2022/05/18 08:56:41;;;;;;;10.15;9.35;;;28.90;69.30;;;;;;4933808;29;20186;-71
2022/05/18 08:59:13;;;;;;;16.25;15.23;;;28.80;68.40;;;;;;4933475;29;20241;-70
2022/05/18 09:01:42;;;;;;;17.00;15.90;;;28.50;68.60;;;;;;4933816;28;20528;-70
2022/05/18 09:04:23;;;;;;;17.58;16.63;;;28.70;69.20;;;;;;4933159;28;20205;-69
2022/05/18 09:06:51;;;;;;;15.88;14.95;;;28.60;69.10;;;;;;4930717;29;20202;-70
2022/05/18 09:12:34;;;;;;;9.50;8.85;;;29.00;66.40;;;;;;4933615;29;20182;-69
2022/05/18 09:15:03;;;;;;;9.90;9.20;;;29.10;66.80;;;;;;4965836;23;20315;-74
2022/05/18 09:17:55;;;;;;;8.43;7.95;;;28.80;66.30;;;;;;4954748;29;20674;-73
2022/05/18 09:20:25;;;;;;;9.45;8.85;;;29.10;64.80;;;;;;4956416;28;20245;-71
2022/05/18 09:22:59;;;;;;;11.45;10.77;;;29.00;65.30;;;;;;4956410;28;20181;-71
2022/05/18 09:26:02;;;;;;;15.25;14.18;;;29.00;65.50;;;;;;4957524;28;20231;-76
2022/05/18 09:28:51;;;;;;;11.85;11.00;;;29.20;66.20;;;;;;4956188;28;20570;-76
2022/05/18 09:31:29;;;;;;;6.65;6.15;;;29.50;65.20;;;;;;4954771;29;20245;-76
2022/05/18 09:34:10;;;;;;;11.35;10.65;;;29.40;64.90;;;;;;4956287;28;20259;-77
2022/05/18 09:36:56;;;;;;;6.18;5.65;;;29.40;66.80;;;;;;4956208;29;20185;-76
2022/05/18 09:39:27;;;;;;;6.18;5.85;;;29.60;64.70;;;;;;4956613;29;20217;-77
2022/05/18 09:41:59;;;;;;;4.55;4.28;;;29.80;63.40;;;;;;4957711;29;20244;-77
2022/05/18 09:44:46;;;;;;;4.20;3.97;;;30.10;63.30;;;;;;4962856;28;20201;-76
2022/05/18 09:47:15;;;;;;;4.05;3.80;;;30.00;61.80;;;;;;4959951;28;20186;-77
2022/05/18 09:49:51;;;;;;;6.47;5.95;;;29.60;61.10;;;;;;4955922;29;20182;-77
2022/05/18 09:52:20;;;;;;;3.85;3.58;;;29.20;64.40;;;;;;4955161;29;20294;-76
2022/05/18 09:54:46;;;;;;;6.72;4.30;;;29.10;62.80;;;;;;4957454;28;20356;-77
2022/05/18 09:57:31;;;;;;;6.68;6.28;;;29.60;63.20;;;;;;4954787;29;20515;-77
2022/05/18 10:00:24;;;;;;;7.57;7.07;;;30.10;62.20;;;;;;4957915;29;20249;-77
2022/05/18 10:08:32;;;;;;;7.57;7.18;;;30.30;60.40;;;;;;4957332;29;20189;-78
2022/05/18 10:11:12;;;;;;;16.38;15.25;;;31.10;60.30;;;;;;4957790;28;20188;-78
2022/05/18 10:14:02;;;;;;;11.20;10.60;;;31.20;56.50;;;;;;4956345;28;20192;-78
2022/05/18 10:16:42;;;;;;;7.53;7.18;;;31.30;56.50;;;;;;4957445;29;20217;-78
2022/05/18 10:19:27;;;;;;;6.43;5.95;;;31.40;55.20;;;;;;4957489;29;20209;-79
2022/05/18 10:21:58;;;;;;;4.88;4.55;;;31.80;54.80;;;;;;4956925;29;20213;-79
2022/05/18 10:24:30;;;;;;;5.28;4.85;;;31.80;54.60;;;;;;4959152;28;20201;-78
2022/05/18 10:27:16;;;;;;;3.80;3.60;;;31.60;55.10;;;;;;4960531;29;20178;-78
2022/05/18 10:29:43;;;;;;;5.35;4.95;;;31.30;53.90;;;;;;4958028;29;20297;-79
2022/05/18 10:32:26;;;;;;;4.78;4.22;;;31.10;54.10;;;;;;4959123;29;20193;-79
2022/05/18 10:34:54;;;;;;;3.92;3.55;;;31.50;52.70;;;;;;4956986;28;20553;-78
2022/05/18 10:37:33;;;;;;;4.90;4.60;;;31.50;52.60;;;;;;4957764;28;20181;-79
2022/05/18 10:40:09;;;;;;;6.43;6.03;;;31.20;53.70;;;;;;4957311;28;20217;-78
2022/05/18 10:42:46;;;;;;;7.30;6.68;;;31.20;54.70;;;;;;4959634;28;20185;-78
2022/05/18 10:45:34;;;;;;;3.60;3.40;;;31.30;54.90;;;;;;4959485;29;20257;-79
2022/05/18 10:48:18;;;;;;;3.90;3.60;;;31.80;52.50;;;;;;4956107;28;20264;-79
2022/05/18 10:50:45;;;;;;;6.32;5.93;;;31.80;51.80;;;;;;4956626;28;20336;-79
2022/05/18 10:53:13;;;;;;;5.22;4.93;;;31.70;49.80;;;;;;4957002;28;20185;-79
2022/05/18 10:55:57;;;;;;;5.00;4.70;;;31.80;50.70;;;;;;4958336;29;20685;-79
2022/05/18 10:58:39;;;;;;;4.82;4.53;;;31.90;50.90;;;;;;4956474;29;20196;-79
2022/05/18 11:01:24;;;;;;;5.75;5.25;;;31.90;51.60;;;;;;4957687;29;20217;-79
2022/05/18 11:04:15;;;;;;;11.75;11.05;;;32.40;50.50;;;;;;4960003;29;20190;-78
2022/05/18 11:06:41;;;;;;;13.65;12.85;;;33.30;46.70;;;;;;4922455;28;20297;-79
2022/05/18 11:09:20;;;;;;;5.47;5.18;;;33.70;47.80;;;;;;4960857;28;20185;-78
2022/05/18 11:12:01;;;;;;;7.85;7.45;;;34.00;45.30;;;;;;4959959;28;20192;-78
2022/05/18 11:14:45;;;;;;;8.57;8.00;;;33.70;47.30;;;;;;4957045;29;20229;-80
2022/05/18 11:17:26;;;;;;;4.40;4.10;;;33.70;46.60;;;;;;4955973;29;20182;-79
2022/05/18 11:20:37;;;;;;;6.43;6.15;;;34.40;45.80;;;;;;4956178;29;20205;-79
2022/05/18 11:23:05;;;;;;;10.98;10.05;;;34.60;44.60;;;;;;4943133;28;20265;-77
2022/05/18 11:25:34;;;;;;;10.00;9.45;;;34.30;43.60;;;;;;4967102;29;20202;-78
2022/05/18 11:28:18;;;;;;;3.60;3.30;;;33.60;44.80;;;;;;4955573;29;20281;-78
2022/05/18 11:31:05;;;;;;;14.63;13.73;;;32.60;46.80;;;;;;4957850;29;20186;-78
2022/05/18 11:33:49;;;;;;;13.90;13.00;;;32.60;48.50;;;;;;4939811;29;20208;-78
2022/05/18 11:36:43;;;;;;;15.00;14.05;;;32.90;47.00;;;;;;4955502;28;20197;-78
2022/05/18 11:39:28;;;;;;;12.32;11.55;;;32.30;48.20;;;;;;4963867;29;20228;-78
2022/05/18 11:42:05;;;;;;;20.23;19.08;;;32.20;49.10;;;;;;4958634;29;20213;-79
2022/05/18 11:44:49;;;;;;;8.75;8.25;;;33.10;48.20;;;;;;4960161;28;20215;-78
2022/05/18 11:47:23;;;;;;;4.35;4.10;;;33.70;45.60;;;;;;4955987;29;20182;-79
2022/05/18 11:50:16;;;;;;;3.72;3.53;;;34.00;44.60;;;;;;4956033;29;20195;-79
2022/05/18 11:53:10;;;;;;;5.85;3.65;;;33.50;45.70;;;;;;4956747;29;20190;-79
2022/05/18 11:55:54;;;;;;;5.90;4.97;;;33.60;44.70;;;;;;4955382;28;20210;-79
2022/05/18 11:58:49;;;;;;;5.10;4.88;;;33.50;44.30;;;;;;4954259;29;20882;-79
2022/05/18 12:01:22;;;;;;;4.60;4.38;;;33.30;42.80;;;;;;4956644;29;20190;-78
2022/05/18 12:04:26;;;;;;;8.52;8.10;;;33.50;42.80;;;;;;4956412;28;20574;-78
2022/05/18 12:07:18;;;;;;;8.68;8.18;;;33.90;41.30;;;;;;4955960;28;20178;-79
2022/05/18 12:10:09;;;;;;;5.07;4.63;;;34.20;42.80;;;;;;4955054;29;20220;-78
2022/05/18 12:13:09;;;;;;;5.25;4.75;;;34.70;39.70;;;;;;4954202;29;20282;-78
2022/05/18 12:15:37;;;;;;;3.03;2.92;;;34.90;41.20;;;;;;4954922;28;20247;-78
2022/05/18 12:18:10;;;;;;;6.70;6.35;;;34.40;39.30;;;;;;4954496;29;20177;-78
2022/05/18 12:21:00;;;;;;;7.60;7.30;;;33.80;41.00;;;;;;4956971;28;20220;-78
2022/05/18 12:23:32;;;;;;;5.22;3.60;;;34.10;42.10;;;;;;4956305;29;20218;-78
2022/05/18 12:25:58;;;;;;;4.30;4.10;;;34.40;40.90;;;;;;4955384;28;20205;-78
2022/05/18 12:28:27;;;;;;;4.05;3.80;;;35.00;39.00;;;;;;4954910;29;20268;-78
2022/05/18 12:30:54;;;;;;;6.20;5.90;;;34.60;40.50;;;;;;4954710;29;20244;-78
2022/05/18 12:33:21;;;;;;;4.40;4.07;;;34.80;42.70;;;;;;4953572;28;20188;-78
2022/05/18 12:36:06;;;;;;;3.13;3.03;;;34.70;40.20;;;;;;4954511;28;20208;-78
2022/05/18 12:38:34;;;;;;;6.13;5.72;;;33.90;39.20;;;;;;4958242;29;20274;-77
2022/05/18 12:41:13;;;;;;;3.70;3.50;;;34.10;40.40;;;;;;4958499;29;20208;-78
2022/05/18 12:43:49;;;;;;;7.20;6.68;;;33.90;41.30;;;;;;4958951;29;20223;-78
2022/05/18 12:46:15;;;;;;;13.98;13.02;;;34.20;41.30;;;;;;4962290;28;20193;-77
2022/05/18 12:48:54;;;;;;;14.77;14.00;;;34.20;42.00;;;;;;4964040;28;20170;-78
2022/05/18 12:51:31;;;;;;;12.65;11.82;;;34.20;41.60;;;;;;4956454;28;20229;-77
2022/05/18 12:54:09;;;;;;;15.30;14.43;;;33.90;42.90;;;;;;4953707;29;20237;-78
2022/05/18 12:56:35;;;;;;;10.88;10.27;;;33.90;41.60;;;;;;4948492;29;20192;-78
2022/05/18 12:59:07;;;;;;;9.20;8.80;;;33.70;41.90;;;;;;4947078;29;20190;-78
2022/05/18 13:01:39;;;;;;;8.55;8.05;;;33.90;42.30;;;;;;4957224;28;20303;-79
2022/05/18 13:04:08;;;;;;;4.93;4.72;;;34.10;42.30;;;;;;4964845;28;20212;-78
2022/05/18 13:06:39;;;;;;;4.22;4.03;;;34.30;39.90;;;;;;4956130;29;20216;-78
2022/05/18 13:09:27;;;;;;;3.85;3.60;;;34.90;39.30;;;;;;4937087;29;20190;-79
2022/05/18 13:12:22;;;;;;;9.03;8.33;;;34.60;40.40;;;;;;4933164;28;20419;-79
2022/05/18 13:15:07;;;;;;;6.05;5.45;;;34.60;40.90;;;;;;4971294;28;20213;-79
2022/05/18 13:18:04;;;;;;;3.78;3.28;;;35.60;39.00;;;;;;4970388;28;20177;-77
2022/05/18 13:20:40;;;;;;;3.63;3.42;;;35.50;39.20;;;;;;4970769;28;20279;-77
2022/05/18 13:23:28;;;;;;;6.15;5.72;;;35.60;40.10;;;;;;4972048;28;20227;-78
2022/05/18 13:26:22;;;;;;;6.55;5.70;;;35.90;37.90;;;;;;4970702;28;20235;-76
2022/05/18 13:28:50;;;;;;;8.90;8.18;;;35.60;38.40;;;;;;4970720;28;20189;-76
2022/05/18 13:31:16;;;;;;;13.98;13.32;;;36.00;38.40;;;;;;4971984;28;20672;-76
2022/05/18 13:34:11;;;;;;;10.88;10.32;;;36.30;38.50;;;;;;4971725;28;20196;-76
2022/05/18 13:36:46;;;;;;;7.82;7.38;;;35.90;36.90;;;;;;4970757;28;20193;-76
2022/05/18 13:39:18;;;;;;;8.15;7.72;;;35.40;38.40;;;;;;4970712;28;20239;-76
2022/05/18 13:41:47;;;;;;;9.95;6.70;;;35.20;37.60;;;;;;4970668;28;20188;-76
2022/05/18 13:44:13;;;;;;;8.32;7.80;;;35.40;38.20;;;;;;4970858;28;20292;-77
2022/05/18 13:46:39;;;;;;;4.88;4.47;;;35.80;38.40;;;;;;4970572;28;20275;-77
2022/05/18 13:49:20;;;;;;;4.20;3.83;;;35.60;39.60;;;;;;4973351;28;20188;-77
2022/05/18 13:51:52;;;;;;;6.82;6.50;;;35.50;39.40;;;;;;4970836;28;20231;-77
2022/05/18 13:54:21;;;;;;;8.82;7.95;;;36.10;37.80;;;;;;4972283;28;20203;-77
2022/05/18 13:56:53;;;;;;;11.15;10.32;;;35.90;37.00;;;;;;4972427;28;20243;-77
2022/05/18 13:59:23;;;;;;;7.40;7.07;;;36.60;37.10;;;;;;4976188;28;20230;-76
2022/05/18 14:01:52;;;;;;;8.63;7.97;;;36.40;35.80;;;;;;4977634;28;20657;-77
2022/05/18 14:04:23;;;;;;;10.45;9.77;;;36.30;36.40;;;;;;4979146;28;20361;-77
2022/05/18 14:06:52;;;;;;;6.68;6.22;;;36.40;36.80;;;;;;4976974;28;20315;-76
2022/05/18 14:09:19;;;;;;;7.60;7.18;;;36.70;36.60;;;;;;4979481;28;20181;-77
2022/05/18 14:11:45;;;;;;;7.03;6.65;;;36.80;36.70;;;;;;4978843;28;20196;-77
2022/05/18 14:14:12;;;;;;;5.03;4.38;;;37.20;35.60;;;;;;4974716;28;20219;-77
2022/05/18 14:16:59;;;;;;;5.30;5.00;;;37.00;34.80;;;;;;4976109;28;20189;-77
2022/05/18 14:19:43;;;;;;;5.95;5.25;;;36.60;35.50;;;;;;4975616;28;20213;-72
2022/05/18 14:22:14;;;;;;;7.63;7.13;;;37.10;36.30;;;;;;4974279;28;20192;-78
2022/05/18 14:24:46;;;;;;;5.60;5.10;;;37.00;36.70;;;;;;4976397;28;20205;-77
2022/05/18 14:27:27;;;;;;;4.57;4.28;;;36.80;36.50;;;;;;4975021;28;20715;-77
2022/05/18 14:29:56;;;;;;;5.32;4.93;;;36.30;36.20;;;;;;4976320;28;20191;-77
2022/05/18 14:32:32;;;;;;;7.43;7.03;;;36.50;37.00;;;;;;4977946;28;20181;-77
2022/05/18 14:35:03;;;;;;;6.70;6.10;;;37.20;37.40;;;;;;4976816;28;20553;-77
2022/05/18 14:37:31;;;;;;;5.55;5.05;;;37.50;37.00;;;;;;4981621;28;20189;-77
2022/05/18 14:40:00;;;;;;;6.25;5.70;;;38.10;36.90;;;;;;4986603;28;20240;-77
2022/05/18 14:42:29;;;;;;;4.07;3.80;;;38.70;36.60;;;;;;4992413;28;20181;-76
2022/05/18 14:45:03;;;;;;;4.10;3.83;;;38.60;34.70;;;;;;4976587;28;20204;-77
2022/05/18 14:47:34;;;;;;;4.43;4.22;;;37.90;34.90;;;;;;4974637;28;20240;-77
2022/05/18 14:50:28;;;;;;;4.18;3.95;;;37.80;34.50;;;;;;4974864;28;20196;-77
2022/05/18 14:53:15;;;;;;;8.18;5.75;;;36.40;35.30;;;;;;4974852;28;20276;-77
2022/05/18 14:55:42;;;;;;;4.65;4.30;;;36.10;36.00;;;;;;4974741;28;20200;-76
2022/05/18 14:58:21;;;;;;;3.60;3.40;;;36.10;36.70;;;;;;4974406;28;20343;-77
2022/05/18 15:00:49;;;;;;;3.85;3.65;;;36.30;35.60;;;;;;4974916;28;20216;-76
2022/05/18 15:03:22;;;;;;;4.93;4.13;;;36.90;35.30;;;;;;4976707;28;20462;-77
2022/05/18 15:05:50;;;;;;;3.67;3.38;;;37.20;35.00;;;;;;4975532;28;20425;-77
2022/05/18 15:08:38;;;;;;;4.85;4.28;;;37.20;36.30;;;;;;4975370;28;20207;-77
2022/05/18 15:11:12;;;;;;;3.78;3.58;;;37.20;36.60;;;;;;4974380;28;20196;-77
2022/05/18 15:16:36;;;;;;;4.22;3.95;;;36.20;36.10;;;;;;4951404;29;20310;-79
2022/05/18 15:19:02;;;;;;;5.40;5.07;;;36.40;37.60;;;;;;4956583;28;20190;-79
2022/05/18 15:21:35;;;;;;;7.82;5.28;;;36.90;37.60;;;;;;4957123;28;20182;-79
2022/05/18 15:24:05;;;;;;;4.32;3.92;;;37.50;37.20;;;;;;4955953;28;20272;-79
2022/05/18 15:26:42;;;;;;;4.45;4.15;;;37.30;36.90;;;;;;4936848;29;20185;-79
2022/05/18 15:29:16;;;;;;;5.95;4.00;;;37.10;37.40;;;;;;4930225;29;20185;-79
2022/05/18 15:31:48;;;;;;;3.75;3.45;;;37.00;36.70;;;;;;4935028;29;20555;-79
2022/05/18 15:34:36;;;;;;;3.40;3.10;;;36.50;37.20;;;;;;4934402;29;20647;-79
2022/05/18 15:37:03;;;;;;;7.32;6.93;;;36.40;37.10;;;;;;4936242;29;20186;-79
2022/05/18 15:39:29;;;;;;;9.93;9.30;;;35.80;38.80;;;;;;4935112;29;20214;-77
2022/05/18 15:41:56;;;;;;;6.60;6.15;;;35.10;40.10;;;;;;4942856;29;20234;-78
2022/05/18 15:44:22;;;;;;;7.22;6.82;;;35.20;41.00;;;;;;4940850;29;20195;-78
2022/05/18 15:46:51;;;;;;;4.65;4.45;;;35.70;40.00;;;;;;4936886;29;20182;-80
2022/05/18 15:49:29;;;;;;;4.90;4.70;;;35.00;40.60;;;;;;4935451;29;20175;-79
2022/05/18 15:52:01;;;;;;;5.20;4.50;;;35.10;40.10;;;;;;4936386;29;20182;-79
2022/05/18 15:54:33;;;;;;;4.93;4.43;;;35.10;40.20;;;;;;4934484;29;20295;-77
2022/05/18 15:56:59;;;;;;;5.40;5.10;;;35.10;39.80;;;;;;4934873;29;20179;-77
2022/05/18 15:59:24;;;;;;;5.38;4.88;;;35.10;40.00;;;;;;4929095;29;20666;-78
2022/05/18 16:01:50;;;;;;;5.07;3.60;;;35.10;40.30;;;;;;4914152;29;20666;-78
2022/05/18 16:04:16;;;;;;;3.83;3.63;;;34.70;41.60;;;;;;4923654;29;20674;-79
2022/05/18 16:06:42;;;;;;;5.05;4.57;;;34.00;41.80;;;;;;4926319;29;20698;-78
2022/05/18 16:09:08;;;;;;;5.55;5.20;;;34.10;42.00;;;;;;4931927;29;20339;-78
2022/05/18 16:11:36;;;;;;;10.90;10.20;;;34.20;41.50;;;;;;4934360;29;20205;-77
2022/05/18 16:14:03;;;;;;;13.43;12.77;;;34.00;42.40;;;;;;4936235;28;20277;-80
2022/05/18 16:16:28;;;;;;;13.15;12.35;;;33.70;42.50;;;;;;4934716;29;20213;-78
2022/05/18 16:18:54;;;;;;;10.43;9.80;;;32.90;43.20;;;;;;4936774;29;20635;-77
2022/05/18 16:21:25;;;;;;;10.82;10.18;;;32.80;43.40;;;;;;4936482;29;20210;-80
2022/05/18 16:23:53;;;;;;;6.32;5.90;;;32.50;43.40;;;;;;4935460;29;20186;-77